sensor_id;sensor_type;location;lat;lon;timestamp;temperature;humidity
2220;DHT22;1116;51.502;7.414;2023-09-30T00:02:04;16.00;56.60
2220;DHT22;1116;51.502;7.414;2023-09-30T00:04:34;16.00;56.00
2220;DHT22;1116;51.502;7.414;2023-09-30T00:07:04;16.00;55.40
2220;DHT22;1116;51.502;7.414;2023-09-30T00:09:37;16.00;55.60
2220;DHT22;1116;51.502;7.414;2023-09-30T00:12:07;16.00;54.80
2220;DHT22;1116;51.502;7.414;2023-09-30T00:14:37;15.80;54.60
2220;DHT22;1116;51.502;7.414;2023-09-30T00:17:07;15.80;55.50
2220;DHT22;1116;51.502;7.414;2023-09-30T00:19:37;15.90;55.70
2220;DHT22;1116;51.502;7.414;2023-09-30T00:22:07;15.90;55.70
2220;DHT22;1116;51.502;7.414;2023-09-30T00:24:40;15.80;55.70
2220;DHT22;1116;51.502;7.414;2023-09-30T00:27:10;15.80;55.90
2220;DHT22;1116;51.502;7.414;2023-09-30T00:29:40;15.80;55.60
2220;DHT22;1116;51.502;7.414;2023-09-30T00:32:10;15.80;55.40
2220;DHT22;1116;51.502;7.414;2023-09-30T00:34:40;15.80;56.30
2220;DHT22;1116;51.502;7.414;2023-09-30T00:37:10;15.70;56.00
2220;DHT22;1116;51.502;7.414;2023-09-30T00:39:43;15.80;56.40
2220;DHT22;1116;51.502;7.414;2023-09-30T00:42:14;15.80;55.80
2220;DHT22;1116;51.502;7.414;2023-09-30T00:44:44;15.90;54.60
2220;DHT22;1116;51.502;7.414;2023-09-30T00:47:14;15.80;55.20
2220;DHT22;1116;51.502;7.414;2023-09-30T00:49:44;15.90;54.70
2220;DHT22;1116;51.502;7.414;2023-09-30T00:52:14;15.90;54.70
2220;DHT22;1116;51.502;7.414;2023-09-30T00:54:48;16.00;55.00
2220;DHT22;1116;51.502;7.414;2023-09-30T00:57:20;16.00;55.50
2220;DHT22;1116;51.502;7.414;2023-09-30T00:59:54;15.90;54.60
2220;DHT22;1116;51.502;7.414;2023-09-30T01:02:25;15.90;55.40
2220;DHT22;1116;51.502;7.414;2023-09-30T01:04:55;15.80;54.60
2220;DHT22;1116;51.502;7.414;2023-09-30T01:07:26;15.80;56.10
2220;DHT22;1116;51.502;7.414;2023-09-30T01:09:59;15.90;55.00
2220;DHT22;1116;51.502;7.414;2023-09-30T01:12:29;15.90;55.20
2220;DHT22;1116;51.502;7.414;2023-09-30T01:14:59;15.90;55.60
2220;DHT22;1116;51.502;7.414;2023-09-30T01:17:34;15.80;56.00
2220;DHT22;1116;51.502;7.414;2023-09-30T01:20:05;15.90;55.60
2220;DHT22;1116;51.502;7.414;2023-09-30T01:22:40;15.80;55.70
2220;DHT22;1116;51.502;7.414;2023-09-30T01:25:11;15.80;56.00
2220;DHT22;1116;51.502;7.414;2023-09-30T01:27:42;15.90;55.50
2220;DHT22;1116;51.502;7.414;2023-09-30T01:30:12;16.00;56.40
2220;DHT22;1116;51.502;7.414;2023-09-30T01:32:42;15.90;54.80
2220;DHT22;1116;51.502;7.414;2023-09-30T01:35:12;16.00;54.80
2220;DHT22;1116;51.502;7.414;2023-09-30T01:37:45;16.00;54.40
2220;DHT22;1116;51.502;7.414;2023-09-30T01:40:15;16.00;55.40
2220;DHT22;1116;51.502;7.414;2023-09-30T01:42:46;16.00;55.30
2220;DHT22;1116;51.502;7.414;2023-09-30T01:45:16;16.00;54.00
2220;DHT22;1116;51.502;7.414;2023-09-30T01:47:46;15.90;53.80
2220;DHT22;1116;51.502;7.414;2023-09-30T01:50:16;16.00;54.80
2220;DHT22;1116;51.502;7.414;2023-09-30T01:52:49;16.00;55.00
2220;DHT22;1116;51.502;7.414;2023-09-30T01:55:19;16.00;54.80
2220;DHT22;1116;51.502;7.414;2023-09-30T01:57:49;16.00;54.70
2220;DHT22;1116;51.502;7.414;2023-09-30T02:00:19;15.90;54.20
2220;DHT22;1116;51.502;7.414;2023-09-30T02:02:49;15.90;54.70
2220;DHT22;1116;51.502;7.414;2023-09-30T02:05:20;15.90;54.70
2220;DHT22;1116;51.502;7.414;2023-09-30T02:07:53;15.80;54.30
2220;DHT22;1116;51.502;7.414;2023-09-30T02:10:23;15.80;53.80
2220;DHT22;1116;51.502;7.414;2023-09-30T02:12:53;15.80;54.70
2220;DHT22;1116;51.502;7.414;2023-09-30T02:15:23;15.90;54.70
2220;DHT22;1116;51.502;7.414;2023-09-30T02:17:53;16.00;55.10
2220;DHT22;1116;51.502;7.414;2023-09-30T02:20:24;15.90;54.30
2220;DHT22;1116;51.502;7.414;2023-09-30T02:23:00;15.90;54.00
2220;DHT22;1116;51.502;7.414;2023-09-30T02:25:32;15.90;54.20
2220;DHT22;1116;51.502;7.414;2023-09-30T02:28:03;15.90;54.70
2220;DHT22;1116;51.502;7.414;2023-09-30T02:30:33;15.90;54.80
2220;DHT22;1116;51.502;7.414;2023-09-30T02:33:03;15.90;54.80
2220;DHT22;1116;51.502;7.414;2023-09-30T02:35:34;15.90;53.30
2220;DHT22;1116;51.502;7.414;2023-09-30T02:38:08;15.90;54.70
2220;DHT22;1116;51.502;7.414;2023-09-30T02:40:38;15.80;53.80
2220;DHT22;1116;51.502;7.414;2023-09-30T02:43:12;15.80;54.10
2220;DHT22;1116;51.502;7.414;2023-09-30T02:45:43;15.90;55.20
2220;DHT22;1116;51.502;7.414;2023-09-30T02:48:13;15.80;53.70
2220;DHT22;1116;51.502;7.414;2023-09-30T02:50:44;15.80;54.90
2220;DHT22;1116;51.502;7.414;2023-09-30T02:53:17;15.90;54.30
2220;DHT22;1116;51.502;7.414;2023-09-30T02:55:47;16.10;55.40
2220;DHT22;1116;51.502;7.414;2023-09-30T02:58:23;15.80;54.10
2220;DHT22;1116;51.502;7.414;2023-09-30T03:00:54;15.80;54.60
2220;DHT22;1116;51.502;7.414;2023-09-30T03:03:24;15.70;53.90
2220;DHT22;1116;51.502;7.414;2023-09-30T03:05:55;15.70;54.50
2220;DHT22;1116;51.502;7.414;2023-09-30T03:08:27;15.60;54.40
2220;DHT22;1116;51.502;7.414;2023-09-30T03:10:58;15.60;54.10
2220;DHT22;1116;51.502;7.414;2023-09-30T03:13:28;15.60;53.90
2220;DHT22;1116;51.502;7.414;2023-09-30T03:15:58;15.70;54.40
2220;DHT22;1116;51.502;7.414;2023-09-30T03:18:28;15.70;54.50
2220;DHT22;1116;51.502;7.414;2023-09-30T03:21:00;15.60;54.40
2220;DHT22;1116;51.502;7.414;2023-09-30T03:23:38;15.70;53.70
2220;DHT22;1116;51.502;7.414;2023-09-30T03:26:08;15.70;53.50
2220;DHT22;1116;51.502;7.414;2023-09-30T03:28:38;15.70;53.60
2220;DHT22;1116;51.502;7.414;2023-09-30T03:31:09;15.70;53.00
2220;DHT22;1116;51.502;7.414;2023-09-30T03:33:39;15.70;54.70
2220;DHT22;1116;51.502;7.414;2023-09-30T03:36:09;15.60;54.40
2220;DHT22;1116;51.502;7.414;2023-09-30T03:38:41;15.70;53.10
2220;DHT22;1116;51.502;7.414;2023-09-30T03:41:12;15.70;54.00
2220;DHT22;1116;51.502;7.414;2023-09-30T03:43:42;15.70;54.40
2220;DHT22;1116;51.502;7.414;2023-09-30T03:46:12;15.60;53.40
2220;DHT22;1116;51.502;7.414;2023-09-30T03:48:42;15.60;54.40
2220;DHT22;1116;51.502;7.414;2023-09-30T03:51:14;15.60;54.00
2220;DHT22;1116;51.502;7.414;2023-09-30T03:53:47;15.60;54.40
2220;DHT22;1116;51.502;7.414;2023-09-30T03:56:18;15.60;53.40
2220;DHT22;1116;51.502;7.414;2023-09-30T03:58:49;15.50;52.70
2220;DHT22;1116;51.502;7.414;2023-09-30T04:01:19;15.50;53.80
2220;DHT22;1116;51.502;7.414;2023-09-30T04:03:50;15.50;53.40
2220;DHT22;1116;51.502;7.414;2023-09-30T04:06:22;15.60;54.40
2220;DHT22;1116;51.502;7.414;2023-09-30T04:08:54;15.60;53.80
2220;DHT22;1116;51.502;7.414;2023-09-30T04:11:25;15.60;53.80
2220;DHT22;1116;51.502;7.414;2023-09-30T04:13:55;15.50;54.20
2220;DHT22;1116;51.502;7.414;2023-09-30T04:16:25;15.40;54.20
2220;DHT22;1116;51.502;7.414;2023-09-30T04:19:00;15.50;54.40
2220;DHT22;1116;51.502;7.414;2023-09-30T04:21:35;15.60;54.40
2220;DHT22;1116;51.502;7.414;2023-09-30T04:24:08;15.40;54.20
2220;DHT22;1116;51.502;7.414;2023-09-30T04:26:38;15.40;54.80
2220;DHT22;1116;51.502;7.414;2023-09-30T04:29:09;15.40;55.00
2220;DHT22;1116;51.502;7.414;2023-09-30T04:31:39;15.40;53.70
2220;DHT22;1116;51.502;7.414;2023-09-30T04:34:11;15.40;54.20
2220;DHT22;1116;51.502;7.414;2023-09-30T04:36:41;15.30;54.10
2220;DHT22;1116;51.502;7.414;2023-09-30T04:39:14;15.40;54.30
2220;DHT22;1116;51.502;7.414;2023-09-30T04:41:45;15.40;54.20
2220;DHT22;1116;51.502;7.414;2023-09-30T04:44:15;15.30;54.10
2220;DHT22;1116;51.502;7.414;2023-09-30T04:46:45;15.20;54.00
2220;DHT22;1116;51.502;7.414;2023-09-30T04:49:15;15.20;53.30
2220;DHT22;1116;51.502;7.414;2023-09-30T04:51:46;15.20;54.10
2220;DHT22;1116;51.502;7.414;2023-09-30T04:54:18;15.20;54.70
2220;DHT22;1116;51.502;7.414;2023-09-30T04:56:49;15.20;54.90
2220;DHT22;1116;51.502;7.414;2023-09-30T04:59:19;15.20;54.10
2220;DHT22;1116;51.502;7.414;2023-09-30T05:01:52;15.10;53.90
2220;DHT22;1116;51.502;7.414;2023-09-30T05:04:22;15.10;54.20
2220;DHT22;1116;51.502;7.414;2023-09-30T05:06:53;15.10;54.10
2220;DHT22;1116;51.502;7.414;2023-09-30T05:09:26;15.00;53.80
2220;DHT22;1116;51.502;7.414;2023-09-30T05:11:56;14.90;55.10
2220;DHT22;1116;51.502;7.414;2023-09-30T05:14:26;15.00;54.40
2220;DHT22;1116;51.502;7.414;2023-09-30T05:16:57;14.90;54.40
2220;DHT22;1116;51.502;7.414;2023-09-30T05:19:27;14.90;54.60
2220;DHT22;1116;51.502;7.414;2023-09-30T05:21:58;14.90;55.30
2220;DHT22;1116;51.502;7.414;2023-09-30T05:24:32;14.80;54.30
2220;DHT22;1116;51.502;7.414;2023-09-30T05:27:02;14.70;54.50
2220;DHT22;1116;51.502;7.414;2023-09-30T05:29:32;14.70;56.60
2220;DHT22;1116;51.502;7.414;2023-09-30T05:32:03;14.70;54.60
2220;DHT22;1116;51.502;7.414;2023-09-30T05:34:33;14.80;55.10
2220;DHT22;1116;51.502;7.414;2023-09-30T05:37:04;14.90;55.20
2220;DHT22;1116;51.502;7.414;2023-09-30T05:39:37;14.80;54.80
2220;DHT22;1116;51.502;7.414;2023-09-30T05:42:08;14.90;55.60
2220;DHT22;1116;51.502;7.414;2023-09-30T05:44:39;14.90;55.60
2220;DHT22;1116;51.502;7.414;2023-09-30T05:47:10;14.90;54.80
2220;DHT22;1116;51.502;7.414;2023-09-30T05:49:40;14.90;54.20
2220;DHT22;1116;51.502;7.414;2023-09-30T05:52:10;14.90;55.30
2220;DHT22;1116;51.502;7.414;2023-09-30T05:54:43;14.90;54.10
2220;DHT22;1116;51.502;7.414;2023-09-30T05:57:13;14.90;55.50
2220;DHT22;1116;51.502;7.414;2023-09-30T05:59:43;14.90;56.00
2220;DHT22;1116;51.502;7.414;2023-09-30T06:02:13;14.90;55.60
2220;DHT22;1116;51.502;7.414;2023-09-30T06:04:43;15.00;54.80
2220;DHT22;1116;51.502;7.414;2023-09-30T06:07:13;15.00;55.00
2220;DHT22;1116;51.502;7.414;2023-09-30T06:09:48;15.00;55.60
2220;DHT22;1116;51.502;7.414;2023-09-30T06:12:18;15.10;54.60
2220;DHT22;1116;51.502;7.414;2023-09-30T06:14:48;15.10;54.70
2220;DHT22;1116;51.502;7.414;2023-09-30T06:17:20;15.20;54.10
2220;DHT22;1116;51.502;7.414;2023-09-30T06:19:50;15.20;54.00
2220;DHT22;1116;51.502;7.414;2023-09-30T06:22:20;15.20;54.00
2220;DHT22;1116;51.502;7.414;2023-09-30T06:24:57;15.20;53.30
2220;DHT22;1116;51.502;7.414;2023-09-30T06:27:29;15.20;55.30
2220;DHT22;1116;51.502;7.414;2023-09-30T06:29:59;15.30;53.00
2220;DHT22;1116;51.502;7.414;2023-09-30T06:32:29;15.30;54.10
2220;DHT22;1116;51.502;7.414;2023-09-30T06:35:00;15.40;54.20
2220;DHT22;1116;51.502;7.414;2023-09-30T06:37:30;15.40;54.20
2220;DHT22;1116;51.502;7.414;2023-09-30T06:40:03;15.40;54.20
2220;DHT22;1116;51.502;7.414;2023-09-30T06:42:35;15.40;53.10
2220;DHT22;1116;51.502;7.414;2023-09-30T06:45:08;15.50;53.90
2220;DHT22;1116;51.502;7.414;2023-09-30T06:47:40;15.40;53.20
2220;DHT22;1116;51.502;7.414;2023-09-30T06:50:13;15.50;53.90
2220;DHT22;1116;51.502;7.414;2023-09-30T06:52:44;15.60;53.80
2220;DHT22;1116;51.502;7.414;2023-09-30T06:55:19;15.70;52.30
2220;DHT22;1116;51.502;7.414;2023-09-30T06:57:51;15.80;53.00
2220;DHT22;1116;51.502;7.414;2023-09-30T07:00:22;15.90;53.20
2220;DHT22;1116;51.502;7.414;2023-09-30T07:02:52;16.00;53.20
2220;DHT22;1116;51.502;7.414;2023-09-30T07:05:22;15.90;52.90
2220;DHT22;1116;51.502;7.414;2023-09-30T07:07:53;16.00;53.00
2220;DHT22;1116;51.502;7.414;2023-09-30T07:10:25;16.40;52.40
2220;DHT22;1116;51.502;7.414;2023-09-30T07:12:56;18.00;47.60
2220;DHT22;1116;51.502;7.414;2023-09-30T07:15:26;19.40;42.30
2220;DHT22;1116;51.502;7.414;2023-09-30T07:17:57;20.40;37.90
2220;DHT22;1116;51.502;7.414;2023-09-30T07:20:27;21.10;35.20
2220;DHT22;1116;51.502;7.414;2023-09-30T07:23:00;21.70;32.90
2220;DHT22;1116;51.502;7.414;2023-09-30T07:25:48;21.90;33.80
2220;DHT22;1116;51.502;7.414;2023-09-30T07:28:18;21.20;34.50
2220;DHT22;1116;51.502;7.414;2023-09-30T07:30:48;22.00;32.20
2220;DHT22;1116;51.502;7.414;2023-09-30T07:33:19;22.80;29.10
2220;DHT22;1116;51.502;7.414;2023-09-30T07:35:49;22.90;29.20
2220;DHT22;1116;51.502;7.414;2023-09-30T07:38:19;22.10;29.70
2220;DHT22;1116;51.502;7.414;2023-09-30T07:40:51;21.70;31.80
2220;DHT22;1116;51.502;7.414;2023-09-30T07:43:21;21.40;32.70
2220;DHT22;1116;51.502;7.414;2023-09-30T07:45:51;22.10;31.40
2220;DHT22;1116;51.502;7.414;2023-09-30T07:48:25;23.10;29.80
2220;DHT22;1116;51.502;7.414;2023-09-30T07:50:56;23.10;30.00
2220;DHT22;1116;51.502;7.414;2023-09-30T07:53:26;22.40;29.80
2220;DHT22;1116;51.502;7.414;2023-09-30T07:55:58;21.70;30.00
2220;DHT22;1116;51.502;7.414;2023-09-30T07:58:28;21.00;33.10
2220;DHT22;1116;51.502;7.414;2023-09-30T08:00:58;20.60;34.60
2220;DHT22;1116;51.502;7.414;2023-09-30T08:03:29;21.00;34.90
2220;DHT22;1116;51.502;7.414;2023-09-30T08:06:02;22.30;31.50
2220;DHT22;1116;51.502;7.414;2023-09-30T08:08:32;23.50;28.60
2220;DHT22;1116;51.502;7.414;2023-09-30T08:11:05;24.80;25.90
2220;DHT22;1116;51.502;7.414;2023-09-30T08:13:35;25.20;24.60
2220;DHT22;1116;51.502;7.414;2023-09-30T08:16:06;25.80;22.20
2220;DHT22;1116;51.502;7.414;2023-09-30T08:18:36;25.40;24.20
2220;DHT22;1116;51.502;7.414;2023-09-30T08:21:09;24.10;26.10
2220;DHT22;1116;51.502;7.414;2023-09-30T08:23:40;23.20;27.50
2220;DHT22;1116;51.502;7.414;2023-09-30T08:26:13;22.50;28.50
2220;DHT22;1116;51.502;7.414;2023-09-30T08:28:43;21.70;31.50
2220;DHT22;1116;51.502;7.414;2023-09-30T08:31:14;21.50;31.90
2220;DHT22;1116;51.502;7.414;2023-09-30T08:33:44;21.70;29.70
2220;DHT22;1116;51.502;7.414;2023-09-30T08:36:14;22.30;30.90
2220;DHT22;1116;51.502;7.414;2023-09-30T08:38:46;23.70;28.40
2220;DHT22;1116;51.502;7.414;2023-09-30T08:41:33;24.90;24.20
2220;DHT22;1116;51.502;7.414;2023-09-30T08:44:04;25.70;21.90
2220;DHT22;1116;51.502;7.414;2023-09-30T08:46:34;26.20;21.50
2220;DHT22;1116;51.502;7.414;2023-09-30T08:49:05;26.50;20.00
2220;DHT22;1116;51.502;7.414;2023-09-30T08:51:35;27.20;20.20
2220;DHT22;1116;51.502;7.414;2023-09-30T08:54:08;27.80;19.20
2220;DHT22;1116;51.502;7.414;2023-09-30T08:56:42;27.50;17.40
2220;DHT22;1116;51.502;7.414;2023-09-30T08:59:15;28.10;16.60
2220;DHT22;1116;51.502;7.414;2023-09-30T09:01:45;28.00;16.10
2220;DHT22;1116;51.502;7.414;2023-09-30T09:04:16;28.10;16.00
2220;DHT22;1116;51.502;7.414;2023-09-30T09:06:46;28.30;16.50
2220;DHT22;1116;51.502;7.414;2023-09-30T09:09:17;28.90;14.50
2220;DHT22;1116;51.502;7.414;2023-09-30T09:11:52;28.40;14.50
2220;DHT22;1116;51.502;7.414;2023-09-30T09:14:36;28.80;14.90
2220;DHT22;1116;51.502;7.414;2023-09-30T09:17:11;29.10;13.70
2220;DHT22;1116;51.502;7.414;2023-09-30T09:19:43;29.00;13.20
2220;DHT22;1116;51.502;7.414;2023-09-30T09:22:13;28.90;14.30
2220;DHT22;1116;51.502;7.414;2023-09-30T09:24:43;29.50;13.50
2220;DHT22;1116;51.502;7.414;2023-09-30T09:27:17;30.10;9.80
2220;DHT22;1116;51.502;7.414;2023-09-30T09:29:49;30.40;9.70
2220;DHT22;1116;51.502;7.414;2023-09-30T09:32:21;29.10;11.20
2220;DHT22;1116;51.502;7.414;2023-09-30T09:35:01;27.60;13.80
2220;DHT22;1116;51.502;7.414;2023-09-30T09:37:33;25.50;17.60
2220;DHT22;1116;51.502;7.414;2023-09-30T09:40:04;26.70;17.20
2220;DHT22;1116;51.502;7.414;2023-09-30T09:42:37;28.30;15.80
2220;DHT22;1116;51.502;7.414;2023-09-30T09:45:09;29.50;13.60
2220;DHT22;1116;51.502;7.414;2023-09-30T09:47:40;29.80;10.50
2220;DHT22;1116;51.502;7.414;2023-09-30T09:50:11;30.10;10.30
2220;DHT22;1116;51.502;7.414;2023-09-30T09:52:43;30.90;9.00
2220;DHT22;1116;51.502;7.414;2023-09-30T09:55:16;31.40;9.80
2220;DHT22;1116;51.502;7.414;2023-09-30T09:57:52;31.40;9.10
2220;DHT22;1116;51.502;7.414;2023-09-30T10:00:24;31.80;8.40
2220;DHT22;1116;51.502;7.414;2023-09-30T10:02:59;32.60;7.20
2220;DHT22;1116;51.502;7.414;2023-09-30T10:05:30;32.60;6.20
2220;DHT22;1116;51.502;7.414;2023-09-30T10:08:03;32.30;5.90
2220;DHT22;1116;51.502;7.414;2023-09-30T10:10:37;31.40;6.30
2220;DHT22;1116;51.502;7.414;2023-09-30T10:16:48;31.50;4.40
2220;DHT22;1116;51.502;7.414;2023-09-30T10:19:23;32.10;5.50
2220;DHT22;1116;51.502;7.414;2023-09-30T10:22:19;32.10;3.90
2220;DHT22;1116;51.502;7.414;2023-09-30T10:24:53;32.20;4.40
2220;DHT22;1116;51.502;7.414;2023-09-30T10:27:36;32.30;4.40
2220;DHT22;1116;51.502;7.414;2023-09-30T10:30:10;32.10;5.50
2220;DHT22;1116;51.502;7.414;2023-09-30T10:33:08;32.40;4.10
2220;DHT22;1116;51.502;7.414;2023-09-30T10:35:47;32.30;4.70
2220;DHT22;1116;51.502;7.414;2023-09-30T10:44:39;30.70;7.50
2220;DHT22;1116;51.502;7.414;2023-09-30T10:47:39;30.40;10.40
2220;DHT22;1116;51.502;7.414;2023-09-30T10:53:19;28.90;8.80
2220;DHT22;1116;51.502;7.414;2023-09-30T10:55:54;28.70;8.70
2220;DHT22;1116;51.502;7.414;2023-09-30T10:58:39;28.30;10.90
2220;DHT22;1116;51.502;7.414;2023-09-30T11:01:13;27.00;11.50
2220;DHT22;1116;51.502;7.414;2023-09-30T11:03:47;25.70;14.90
2220;DHT22;1116;51.502;7.414;2023-09-30T11:06:19;25.20;16.30
2220;DHT22;1116;51.502;7.414;2023-09-30T11:08:52;24.20;17.30
2220;DHT22;1116;51.502;7.414;2023-09-30T11:11:34;24.00;18.80
2220;DHT22;1116;51.502;7.414;2023-09-30T11:14:20;24.40;19.00
2220;DHT22;1116;51.502;7.414;2023-09-30T11:16:56;25.00;19.30
2220;DHT22;1116;51.502;7.414;2023-09-30T11:19:35;25.80;16.70
2220;DHT22;1116;51.502;7.414;2023-09-30T11:22:06;25.70;14.50
2220;DHT22;1116;51.502;7.414;2023-09-30T11:24:36;25.40;14.40
2220;DHT22;1116;51.502;7.414;2023-09-30T11:27:06;26.30;15.40
2220;DHT22;1116;51.502;7.414;2023-09-30T11:29:36;26.90;14.30
2220;DHT22;1116;51.502;7.414;2023-09-30T11:32:06;27.40;11.80
2220;DHT22;1116;51.502;7.414;2023-09-30T11:34:39;27.90;12.50
2220;DHT22;1116;51.502;7.414;2023-09-30T11:37:09;28.10;11.60
2220;DHT22;1116;51.502;7.414;2023-09-30T11:39:40;28.30;10.40
2220;DHT22;1116;51.502;7.414;2023-09-30T11:42:15;28.00;11.30
2220;DHT22;1116;51.502;7.414;2023-09-30T11:44:47;27.90;11.90
2220;DHT22;1116;51.502;7.414;2023-09-30T11:47:28;27.90;11.40
2220;DHT22;1116;51.502;7.414;2023-09-30T11:50:04;27.90;11.50
2220;DHT22;1116;51.502;7.414;2023-09-30T11:52:35;27.90;10.40
2220;DHT22;1116;51.502;7.414;2023-09-30T11:55:08;27.00;11.70
2220;DHT22;1116;51.502;7.414;2023-09-30T11:57:39;26.00;13.50
2220;DHT22;1116;51.502;7.414;2023-09-30T12:00:10;25.40;14.00
2220;DHT22;1116;51.502;7.414;2023-09-30T12:02:43;25.50;12.10
2220;DHT22;1116;51.502;7.414;2023-09-30T12:05:16;25.40;11.80
2220;DHT22;1116;51.502;7.414;2023-09-30T12:07:49;25.70;11.30
2220;DHT22;1116;51.502;7.414;2023-09-30T12:10:19;25.60;13.50
2220;DHT22;1116;51.502;7.414;2023-09-30T12:12:50;25.70;14.50
2220;DHT22;1116;51.502;7.414;2023-09-30T12:15:20;25.70;15.50
2220;DHT22;1116;51.502;7.414;2023-09-30T12:17:50;25.90;15.50
2220;DHT22;1116;51.502;7.414;2023-09-30T12:20:23;25.90;14.60
2220;DHT22;1116;51.502;7.414;2023-09-30T12:22:53;25.60;12.10
2220;DHT22;1116;51.502;7.414;2023-09-30T12:25:23;25.40;11.10
2220;DHT22;1116;51.502;7.414;2023-09-30T12:27:53;25.50;15.20
2220;DHT22;1116;51.502;7.414;2023-09-30T12:30:24;25.60;12.00
2220;DHT22;1116;51.502;7.414;2023-09-30T12:32:54;25.80;11.30
2220;DHT22;1116;51.502;7.414;2023-09-30T12:35:27;25.60;12.10
2220;DHT22;1116;51.502;7.414;2023-09-30T12:37:57;25.80;16.20
2220;DHT22;1116;51.502;7.414;2023-09-30T12:40:27;25.90;14.90
2220;DHT22;1116;51.502;7.414;2023-09-30T12:42:57;25.80;16.20
2220;DHT22;1116;51.502;7.414;2023-09-30T12:45:29;26.00;14.20
2220;DHT22;1116;51.502;7.414;2023-09-30T12:47:59;26.10;14.40
2220;DHT22;1116;51.502;7.414;2023-09-30T12:50:32;25.80;11.90
2220;DHT22;1116;51.502;7.414;2023-09-30T12:53:02;26.00;14.30
2220;DHT22;1116;51.502;7.414;2023-09-30T12:55:33;26.00;13.90
2220;DHT22;1116;51.502;7.414;2023-09-30T12:58:03;26.00;12.50
2220;DHT22;1116;51.502;7.414;2023-09-30T13:00:35;26.30;11.90
2220;DHT22;1116;51.502;7.414;2023-09-30T13:03:05;26.60;11.20
2220;DHT22;1116;51.502;7.414;2023-09-30T13:05:38;26.90;11.40
2220;DHT22;1116;51.502;7.414;2023-09-30T13:08:10;27.00;11.40
2220;DHT22;1116;51.502;7.414;2023-09-30T13:10:40;26.90;9.30
2220;DHT22;1116;51.502;7.414;2023-09-30T13:13:10;26.90;9.70
2220;DHT22;1116;51.502;7.414;2023-09-30T13:15:41;26.70;11.10
2220;DHT22;1116;51.502;7.414;2023-09-30T13:18:11;26.60;11.20
2220;DHT22;1116;51.502;7.414;2023-09-30T13:20:43;26.70;11.10
2220;DHT22;1116;51.502;7.414;2023-09-30T13:23:13;26.50;12.60
2220;DHT22;1116;51.502;7.414;2023-09-30T13:25:47;26.50;12.60
2220;DHT22;1116;51.502;7.414;2023-09-30T13:28:17;26.10;13.10
2220;DHT22;1116;51.502;7.414;2023-09-30T13:30:47;25.50;13.90
2220;DHT22;1116;51.502;7.414;2023-09-30T13:33:18;25.00;13.10
2220;DHT22;1116;51.502;7.414;2023-09-30T13:35:50;24.40;14.40
2220;DHT22;1116;51.502;7.414;2023-09-30T13:38:22;24.20;15.80
2220;DHT22;1116;51.502;7.414;2023-09-30T13:40:53;24.00;15.50
2220;DHT22;1116;51.502;7.414;2023-09-30T13:43:23;23.80;15.30
2220;DHT22;1116;51.502;7.414;2023-09-30T13:45:53;23.50;16.70
2220;DHT22;1116;51.502;7.414;2023-09-30T13:48:23;23.40;17.60
2220;DHT22;1116;51.502;7.414;2023-09-30T13:51:03;23.30;18.00
2220;DHT22;1116;51.502;7.414;2023-09-30T13:53:35;23.10;18.80
2220;DHT22;1116;51.502;7.414;2023-09-30T13:56:06;22.90;18.40
2220;DHT22;1116;51.502;7.414;2023-09-30T13:58:37;22.80;18.10
2220;DHT22;1116;51.502;7.414;2023-09-30T14:01:09;22.80;19.80
2220;DHT22;1116;51.502;7.414;2023-09-30T14:03:39;22.90;19.30
2220;DHT22;1116;51.502;7.414;2023-09-30T14:06:13;22.90;18.50
2220;DHT22;1116;51.502;7.414;2023-09-30T14:08:43;22.70;17.00
2220;DHT22;1116;51.502;7.414;2023-09-30T14:11:13;22.60;18.60
2220;DHT22;1116;51.502;7.414;2023-09-30T14:13:44;22.70;19.10
2220;DHT22;1116;51.502;7.414;2023-09-30T14:16:14;22.60;19.70
2220;DHT22;1116;51.502;7.414;2023-09-30T14:18:44;22.60;18.60
2220;DHT22;1116;51.502;7.414;2023-09-30T14:21:19;22.60;20.30
2220;DHT22;1116;51.502;7.414;2023-09-30T14:23:49;22.60;20.20
2220;DHT22;1116;51.502;7.414;2023-09-30T14:26:19;22.50;19.60
2220;DHT22;1116;51.502;7.414;2023-09-30T14:28:49;22.50;19.70
2220;DHT22;1116;51.502;7.414;2023-09-30T14:31:20;22.40;20.50
2220;DHT22;1116;51.502;7.414;2023-09-30T14:33:50;22.40;19.50
2220;DHT22;1116;51.502;7.414;2023-09-30T14:36:23;22.30;19.50
2220;DHT22;1116;51.502;7.414;2023-09-30T14:38:53;22.30;20.60
2220;DHT22;1116;51.502;7.414;2023-09-30T14:41:39;22.20;20.80
2220;DHT22;1116;51.502;7.414;2023-09-30T14:44:10;22.10;19.70
2220;DHT22;1116;51.502;7.414;2023-09-30T14:46:40;22.00;20.40
2220;DHT22;1116;51.502;7.414;2023-09-30T14:49:11;21.90;21.40
2220;DHT22;1116;51.502;7.414;2023-09-30T14:51:45;21.80;22.20
2220;DHT22;1116;51.502;7.414;2023-09-30T14:54:16;21.90;22.70
2220;DHT22;1116;51.502;7.414;2023-09-30T14:56:46;21.80;21.40
2220;DHT22;1116;51.502;7.414;2023-09-30T14:59:16;21.70;23.10
2220;DHT22;1116;51.502;7.414;2023-09-30T15:01:47;21.70;23.00
2220;DHT22;1116;51.502;7.414;2023-09-30T15:04:17;21.60;22.70
2220;DHT22;1116;51.502;7.414;2023-09-30T15:06:50;21.60;23.40
2220;DHT22;1116;51.502;7.414;2023-09-30T15:09:20;21.60;23.80
2220;DHT22;1116;51.502;7.414;2023-09-30T15:11:50;21.60;23.30
2220;DHT22;1116;51.502;7.414;2023-09-30T15:14:20;21.40;23.10
2220;DHT22;1116;51.502;7.414;2023-09-30T15:16:50;21.40;23.50
2220;DHT22;1116;51.502;7.414;2023-09-30T15:19:20;21.30;23.40
2220;DHT22;1116;51.502;7.414;2023-09-30T15:21:53;21.30;24.30
2220;DHT22;1116;51.502;7.414;2023-09-30T15:24:25;21.40;24.00
2220;DHT22;1116;51.502;7.414;2023-09-30T15:26:55;21.30;23.30
2220;DHT22;1116;51.502;7.414;2023-09-30T15:29:25;21.20;23.80
2220;DHT22;1116;51.502;7.414;2023-09-30T15:31:55;21.10;23.90
2220;DHT22;1116;51.502;7.414;2023-09-30T15:34:25;21.20;24.40
2220;DHT22;1116;51.502;7.414;2023-09-30T15:36:58;21.10;25.00
2220;DHT22;1116;51.502;7.414;2023-09-30T15:39:37;21.20;27.20
2220;DHT22;1116;51.502;7.414;2023-09-30T15:42:09;21.10;26.20
2220;DHT22;1116;51.502;7.414;2023-09-30T15:44:39;21.20;25.90
2220;DHT22;1116;51.502;7.414;2023-09-30T15:47:09;21.20;25.10
2220;DHT22;1116;51.502;7.414;2023-09-30T15:49:39;21.10;26.20
2220;DHT22;1116;51.502;7.414;2023-09-30T15:52:12;21.00;25.30
2220;DHT22;1116;51.502;7.414;2023-09-30T15:54:43;20.90;25.00
2220;DHT22;1116;51.502;7.414;2023-09-30T15:57:16;20.70;25.80
2220;DHT22;1116;51.502;7.414;2023-09-30T15:59:46;20.70;26.20
2220;DHT22;1116;51.502;7.414;2023-09-30T16:02:17;20.70;25.70
2220;DHT22;1116;51.502;7.414;2023-09-30T16:04:47;20.70;27.20
2220;DHT22;1116;51.502;7.414;2023-09-30T16:07:20;20.70;26.50
2220;DHT22;1116;51.502;7.414;2023-09-30T16:09:50;20.60;27.60
2220;DHT22;1116;51.502;7.414;2023-09-30T16:12:20;20.60;28.30
2220;DHT22;1116;51.502;7.414;2023-09-30T16:14:51;20.60;28.00
2220;DHT22;1116;51.502;7.414;2023-09-30T16:17:21;20.50;27.70
2220;DHT22;1116;51.502;7.414;2023-09-30T16:19:51;20.40;28.40
2220;DHT22;1116;51.502;7.414;2023-09-30T16:22:24;20.50;28.50
2220;DHT22;1116;51.502;7.414;2023-09-30T16:24:54;20.40;28.30
2220;DHT22;1116;51.502;7.414;2023-09-30T16:27:24;20.30;28.20
2220;DHT22;1116;51.502;7.414;2023-09-30T16:29:55;20.30;28.20
2220;DHT22;1116;51.502;7.414;2023-09-30T16:32:26;20.30;29.10
2220;DHT22;1116;51.502;7.414;2023-09-30T16:34:58;20.30;29.40
2220;DHT22;1116;51.502;7.414;2023-09-30T16:37:32;20.20;29.00
2220;DHT22;1116;51.502;7.414;2023-09-30T16:40:03;20.20;29.80
2220;DHT22;1116;51.502;7.414;2023-09-30T16:42:35;20.10;29.50
2220;DHT22;1116;51.502;7.414;2023-09-30T16:45:07;20.00;32.00